Eufola, North Carolina
Current Conditions -  °F | °C
As of 6:55 PM on Monday 20 Oct 2014 (Local Time) from KSVH Reporting Station
Clear Clear  
Wind Chill: 62°   Ceiling: Unl
Heat Index: 62°   Visibility: 10mi
Dew Point: 50°   Wind: 5mph
Humidity: 65%   Direction: 200°SSW
Pressure: 29.97"   Gusts: NA
Location:  35.8306°N, 80.9003°W
Report Text: KSVH 202255Z AUTO 20004KT 10SM CLR 17/10 A2997 RMK AO2 T01650100
Loading
Personal Weather Stations






























Interactive Weather Map New forecast layout! Learn more

10-Day Weather Forecast

Advertisements
Track Severe Weather on mobile